Time;durP1;ratioP1;P1;durP2;ratioP2;P2;SDS_P1;SDS_P2;PMS_P1;PMS_P2;Temp;Humidity;BMP_temperature;BMP_pressure;BME280_temperature;BME280_humidity;BME280_pressure;Samples;Min_cycle;Max_cycle;Signal;HPM_P1;HPM_P2
2022/07/15 00:02:05;;;;;;;4.10;1.50;;;;;;;17.78;47.70;99702.65;106330;1270;96488;-78
2022/07/15 00:04:38;;;;;;;6.30;1.80;;;;;;;17.75;47.90;99698.84;106356;1270;138388;-78
2022/07/15 00:07:10;;;;;;;5.10;1.80;;;;;;;17.71;47.96;99705.07;106408;1271;108930;-78
2022/07/15 00:12:33;;;;;;;6.90;2.10;;;;;;;17.64;48.23;99705.05;107428;1268;137334;-77
2022/07/15 00:15:07;;;;;;;8.90;1.80;;;;;;;17.59;48.31;99708.36;106423;1268;96475;-77
2022/07/15 00:17:39;;;;;;;4.30;1.80;;;;;;;17.54;48.47;99710.29;107745;1268;137454;-77
2022/07/15 00:20:15;;;;;;;9.20;1.90;;;;;;;17.49;48.50;99708.52;107877;1268;108986;-78
2022/07/15 00:22:48;;;;;;;6.20;1.90;;;;;;;17.46;48.58;99714.38;107784;1268;139412;-77
2022/07/15 00:25:22;;;;;;;4.50;1.50;;;;;;;17.43;48.77;99714.07;107892;1268;94680;-78
2022/07/15 00:27:57;;;;;;;4.40;1.70;;;;;;;17.40;48.98;99717.95;107906;1268;94608;-77
2022/07/15 00:30:33;;;;;;;4.10;1.40;;;;;;;17.37;49.05;99725.30;107764;1269;137209;-77
2022/07/15 00:33:06;;;;;;;4.40;1.80;;;;;;;17.35;49.05;99721.40;106938;1270;108256;-78
2022/07/15 00:35:40;;;;;;;4.50;1.90;;;;;;;17.34;49.02;99718.90;106079;1270;138766;-79
2022/07/15 00:38:12;;;;;;;5.80;1.80;;;;;;;17.34;49.27;99717.10;106929;1270;96482;-77
2022/07/15 00:40:48;;;;;;;9.70;1.80;;;;;;;17.35;49.32;99721.26;106841;1270;139020;-78
2022/07/15 00:43:21;;;;;;;5.30;1.30;;;;;;;17.36;49.41;99718.05;107028;1270;110150;-76
2022/07/15 00:45:53;;;;;;;6.60;1.70;;;;;;;17.36;49.61;99719.09;107806;1270;111092;-77
2022/07/15 00:48:26;;;;;;;4.10;1.50;;;;;;;17.36;49.71;99719.97;107785;1268;138026;-77
2022/07/15 00:50:59;;;;;;;6.20;1.90;;;;;;;17.36;49.65;99725.05;107885;1270;94806;-77
2022/07/15 00:53:34;;;;;;;4.80;1.50;;;;;;;17.35;49.73;99722.52;107780;1269;138477;-77
2022/07/15 00:56:10;;;;;;;5.00;1.60;;;;;;;17.34;49.75;99726.80;107838;1270;111212;-77
2022/07/15 00:58:43;;;;;;;4.90;1.40;;;;;;;17.32;49.84;99727.96;107800;1268;137544;-77
2022/07/15 01:01:21;;;;;;;7.70;1.70;;;;;;;17.32;49.92;99726.59;107472;1270;108873;-77
2022/07/15 01:03:54;;;;;;;5.50;1.70;;;;;;;17.31;49.99;99727.86;106553;1271;96469;-78
2022/07/15 01:37:43;;;;;;;4.00;1.60;;;;;;;16.92;50.91;99706.63;106352;1261;109091;-77
2022/07/15 01:40:16;;;;;;;4.40;1.30;;;;;;;16.86;51.01;99714.53;107715;1270;107784;-77
2022/07/15 01:42:49;;;;;;;6.10;2.00;;;;;;;16.79;51.28;99717.00;106386;1271;138171;-78
2022/07/15 01:45:21;;;;;;;4.20;1.60;;;;;;;16.71;51.42;99718.71;106269;1271;96355;-77
2022/07/15 01:47:54;;;;;;;7.40;1.80;;;;;;;16.63;51.60;99720.81;106184;1270;137546;-77
2022/07/15 01:50:47;;;;;;;4.20;1.70;;;;;;;16.54;51.86;99721.23;106188;1273;109200;-77
2022/07/15 01:53:23;;;;;;;8.20;1.60;;;;;;;16.47;52.08;99717.80;107676;1270;139145;-77
2022/07/15 01:55:56;;;;;;;4.20;1.80;;;;;;;16.41;52.28;99719.27;107788;1270;94852;-78
2022/07/15 01:58:29;;;;;;;6.20;1.90;;;;;;;16.34;52.52;99720.42;106744;1271;96598;-79
2022/07/15 02:01:02;;;;;;;7.90;1.80;;;;;;;16.28;52.66;99723.93;106283;1270;111883;-78
2022/07/15 02:03:35;;;;;;;4.10;1.60;;;;;;;16.23;52.77;99726.58;107814;1270;107993;-77
2022/07/15 02:06:08;;;;;;;5.00;1.40;;;;;;;16.16;52.93;99722.94;106610;1271;138465;-77
2022/07/15 02:08:41;;;;;;;6.60;1.70;;;;;;;16.13;53.16;99721.77;107743;1270;94717;-77
2022/07/15 02:11:16;;;;;;;2.80;1.50;;;;;;;16.09;53.33;99724.29;106788;1271;137436;-79
2022/07/15 02:13:58;;;;;;;3.00;1.50;;;;;;;16.06;53.48;99728.20;106224;1270;111190;-77
2022/07/15 02:16:32;;;;;;;7.90;2.10;;;;;;;16.00;53.62;99730.33;106157;1270;139466;-76
2022/07/15 02:19:08;;;;;;;5.20;1.60;;;;;;;15.93;53.70;99731.40;106204;1270;109023;-78
2022/07/15 02:21:41;;;;;;;6.50;1.80;;;;;;;15.87;53.85;99729.52;107777;1270;94891;-77
2022/07/15 02:24:13;;;;;;;6.00;1.80;;;;;;;15.82;54.04;99727.94;106200;1271;138110;-78
2022/07/15 02:26:47;;;;;;;5.40;1.80;;;;;;;15.78;54.32;99727.67;107704;1270;109939;-78
2022/07/15 02:29:19;;;;;;;4.40;1.60;;;;;;;15.73;54.51;99726.89;106116;1271;139428;-78
2022/07/15 02:31:52;;;;;;;6.60;2.00;;;;;;;15.70;54.55;99728.98;106275;1270;108722;-78
2022/07/15 02:34:25;;;;;;;6.00;1.90;;;;;;;15.65;54.63;99730.67;106312;1270;96521;-78
2022/07/15 02:36:58;;;;;;;5.20;1.80;;;;;;;15.62;54.85;99734.94;107807;1270;94765;-79
2022/07/15 02:39:30;;;;;;;6.20;1.80;;;;;;;15.58;54.94;99740.92;107752;1271;111060;-79
2022/07/15 02:42:03;;;;;;;4.20;1.60;;;;;;;15.54;54.93;99747.98;107574;1271;138351;-79
2022/07/15 02:44:36;;;;;;;4.80;1.90;;;;;;;15.51;55.16;99748.89;107585;1271;107781;-78
2022/07/15 02:47:09;;;;;;;7.80;1.90;;;;;;;15.50;55.10;99750.17;106118;1271;138805;-76
2022/07/15 02:49:44;;;;;;;7.20;1.90;;;;;;;15.49;55.32;99749.23;107687;1270;94819;-77
2022/07/15 02:52:16;;;;;;;7.30;2.40;;;;;;;15.47;55.19;99754.21;106538;1273;111007;-77
2022/07/15 02:54:52;;;;;;;5.60;1.70;;;;;;;15.45;55.29;99757.17;106114;1270;138257;-79
2022/07/15 02:57:25;;;;;;;5.00;1.60;;;;;;;15.39;55.27;99757.27;106188;1271;109226;-78
2022/07/15 02:59:57;;;;;;;5.70;2.00;;;;;;;15.36;55.55;99759.42;106074;1271;138588;-79
2022/07/15 03:02:30;;;;;;;7.60;1.90;;;;;;;15.34;55.76;99759.55;107688;1270;94411;-77
2022/07/15 03:05:08;;;;;;;6.50;1.80;;;;;;;15.33;55.84;99759.77;106498;1271;139070;-79
2022/07/15 03:07:41;;;;;;;7.40;1.70;;;;;;;15.33;55.72;99757.83;106916;1270;107815;-79
2022/07/15 03:10:14;;;;;;;5.60;1.90;;;;;;;15.33;55.91;99760.16;106485;1270;107313;-79
2022/07/15 03:12:49;;;;;;;7.20;2.00;;;;;;;15.32;55.86;99758.28;106365;1271;137973;-77
2022/07/15 03:15:22;;;;;;;6.10;1.80;;;;;;;15.32;55.98;99760.89;106255;1270;96460;-77
2022/07/15 03:17:55;;;;;;;4.80;1.50;;;;;;;15.34;56.01;99760.40;106156;1270;138502;-78
2022/07/15 03:20:30;;;;;;;7.70;1.90;;;;;;;15.36;56.10;99762.03;106321;1270;108676;-78
2022/07/15 03:23:03;;;;;;;6.60;1.90;;;;;;;15.41;56.30;99764.73;106188;1270;138759;-77
2022/07/15 03:25:36;;;;;;;7.80;1.90;;;;;;;15.44;56.24;99764.92;107680;1270;94910;-79
2022/07/15 03:28:12;;;;;;;6.50;1.70;;;;;;;15.46;56.22;99766.71;107714;1270;94750;-78
2022/07/15 03:30:45;;;;;;;4.40;1.80;;;;;;;15.47;56.01;99769.83;107642;1271;138139;-79
2022/07/15 03:33:19;;;;;;;3.80;1.40;;;;;;;15.48;55.89;99771.49;107181;1270;108872;-77
2022/07/15 03:35:51;;;;;;;5.60;1.50;;;;;;;15.51;55.80;99772.21;107568;1270;138586;-78
2022/07/15 03:38:24;;;;;;;6.50;1.90;;;;;;;15.54;55.61;99771.63;107641;1270;95043;-78
2022/07/15 03:40:57;;;;;;;5.30;1.60;;;;;;;15.59;55.59;99771.70;106433;1270;138265;-78
2022/07/15 03:43:30;;;;;;;7.30;1.80;;;;;;;15.63;55.60;99773.05;107650;1273;111159;-78
2022/07/15 03:46:04;;;;;;;4.70;1.70;;;;;;;15.66;55.74;99775.14;107658;1271;107968;-78
2022/07/15 03:48:36;;;;;;;5.80;1.80;;;;;;;15.69;55.60;99771.97;107558;1271;138892;-78
2022/07/15 03:51:10;;;;;;;5.00;1.90;;;;;;;15.72;55.68;99776.23;106585;1271;97103;-77
2022/07/15 03:53:43;;;;;;;6.40;1.70;;;;;;;15.73;55.54;99780.05;106424;1270;138376;-77
2022/07/15 03:56:15;;;;;;;5.60;1.80;;;;;;;15.73;55.50;99782.44;106292;1270;110699;-77
2022/07/15 03:58:48;;;;;;;3.80;1.70;;;;;;;15.76;55.45;99779.15;106145;1271;138457;-77
2022/07/15 04:01:21;;;;;;;6.20;1.60;;;;;;;15.79;55.55;99771.78;106252;1271;109798;-76
2022/07/15 04:03:55;;;;;;;6.90;1.90;;;;;;;15.80;55.51;99767.99;107337;1270;96471;-76
2022/07/15 04:06:27;;;;;;;5.30;1.80;;;;;;;15.81;55.47;99767.96;107709;1270;138081;-78
2022/07/15 04:09:00;;;;;;;6.90;1.90;;;;;;;15.86;55.44;99766.77;107780;1271;109805;-77
2022/07/15 04:11:33;;;;;;;3.40;1.40;;;;;;;15.92;55.49;99770.80;107549;1273;138511;-77
2022/07/15 04:14:06;;;;;;;4.70;1.40;;;;;;;15.97;55.30;99775.36;107360;1270;108977;-77
2022/07/15 04:16:38;;;;;;;4.10;1.80;;;;;;;16.03;55.09;99778.52;106052;1271;139459;-76
2022/07/15 04:19:20;;;;;;;6.00;1.70;;;;;;;16.07;54.81;99783.38;107497;1271;94473;-77
2022/07/15 04:21:55;;;;;;;7.50;1.50;;;;;;;16.09;54.61;99779.52;106277;1271;110236;-77
2022/07/15 04:24:28;;;;;;;5.00;1.50;;;;;;;16.13;54.65;99784.88;106013;1271;137956;-77
2022/07/15 04:27:00;;;;;;;4.80;1.80;;;;;;;16.18;54.55;99785.42;106162;1271;108954;-77
2022/07/15 04:29:35;;;;;;;4.00;1.50;;;;;;;16.21;54.38;99782.42;106036;1270;138913;-78
2022/07/15 04:32:08;;;;;;;4.30;2.10;;;;;;;16.24;54.29;99778.55;107484;1270;96449;-77
2022/07/15 04:34:44;;;;;;;3.20;1.30;;;;;;;16.29;54.05;99776.63;106167;1270;137656;-76
2022/07/15 04:37:17;;;;;;;7.50;2.00;;;;;;;16.35;54.13;99778.97;106191;1270;109370;-77
2022/07/15 04:39:53;;;;;;;4.30;1.70;;;;;;;16.42;53.99;99785.36;106238;1270;108283;-77
2022/07/15 04:42:27;;;;;;;5.50;1.50;;;;;;;16.49;53.84;99785.07;105996;1271;137829;-78
2022/07/15 04:44:59;;;;;;;4.30;1.70;;;;;;;16.55;53.81;99787.14;107771;1270;96057;-77
2022/07/15 04:47:31;;;;;;;4.60;1.80;;;;;;;16.64;53.53;99790.43;107671;1271;137415;-78
2022/07/15 04:52:58;;;;;;;7.20;2.00;;;;;;;16.82;53.12;99798.90;107573;1271;137851;-77
2022/07/15 04:55:31;;;;;;;5.80;1.80;;;;;;;16.92;53.05;99798.61;107775;1271;95982;-77
2022/07/15 04:58:07;;;;;;;5.90;1.70;;;;;;;17.05;52.89;99800.56;107671;1270;96197;-77
2022/07/15 05:00:40;;;;;;;5.60;2.00;;;;;;;17.21;52.89;99801.80;106956;1271;138054;-76
2022/07/15 05:03:15;;;;;;;8.00;2.10;;;;;;;17.41;52.56;99805.21;106267;1271;109246;-77
2022/07/15 05:05:48;;;;;;;7.60;1.90;;;;;;;17.59;52.21;99808.73;107579;1271;137818;-77
2022/07/15 05:08:22;;;;;;;3.10;1.70;;;;;;;17.73;51.50;99812.52;107020;1271;96513;-76
2022/07/15 05:10:58;;;;;;;5.40;2.00;;;;;;;17.88;51.20;99816.97;106127;1271;137665;-77
2022/07/15 05:13:31;;;;;;;7.40;2.10;;;;;;;18.01;50.77;99819.02;106224;1271;112394;-76
2022/07/15 05:16:05;;;;;;;8.90;1.90;;;;;;;18.16;50.44;99816.40;106775;1271;109209;-76
2022/07/15 05:18:38;;;;;;;4.90;1.70;;;;;;;18.33;50.20;99821.40;107687;1271;138256;-77
2022/07/15 05:21:10;;;;;;;5.10;1.40;;;;;;;18.54;50.00;99828.67;107333;1271;96456;-76
2022/07/15 05:23:45;;;;;;;4.20;1.30;;;;;;;18.74;49.50;99832.73;107601;1271;138305;-76
2022/07/15 05:26:37;;;;;;;4.10;1.60;;;;;;;18.98;49.18;99829.04;107719;1271;111638;-77
2022/07/15 05:29:16;;;;;;;3.80;1.50;;;;;;;19.21;48.96;99832.43;107564;1271;139986;-77
2022/07/15 05:31:50;;;;;;;4.80;1.70;;;;;;;19.49;48.66;99839.30;106599;1271;112482;-80
2022/07/15 05:34:23;;;;;;;3.20;1.60;;;;;;;19.85;48.43;99835.67;107735;1271;96017;-82
2022/07/15 05:36:59;;;;;;;4.70;1.60;;;;;;;20.21;47.55;99834.61;107015;1271;96515;-81
2022/07/15 05:39:32;;;;;;;2.10;0.90;;;;;;;20.41;46.67;99840.16;106216;1271;112824;-83
2022/07/15 05:42:06;;;;;;;2.30;0.90;;;;;;;20.55;46.07;99840.31;107737;1270;137849;-86
2022/07/15 05:44:38;;;;;;;7.40;1.10;;;;;;;20.88;45.77;99846.21;107683;1270;108900;-85
2022/07/15 05:47:10;;;;;;;4.90;1.30;;;;;;;21.44;45.42;99845.02;107601;1270;137810;-86
2022/07/15 05:49:44;;;;;;;4.40;1.80;;;;;;;21.79;44.65;99846.30;106981;1270;95977;-86
2022/07/15 05:52:16;;;;;;;3.50;1.10;;;;;;;22.13;44.04;99843.36;107710;1270;112466;-84
2022/07/15 05:54:50;;;;;;;4.10;1.90;;;;;;;22.62;42.90;99847.09;106375;1270;137492;-84
2022/07/15 05:57:22;;;;;;;3.30;1.30;;;;;;;22.56;42.44;99846.66;106516;1271;108289;-81
2022/07/15 05:59:55;;;;;;;4.40;1.10;;;;;;;22.43;42.04;99853.19;107545;1270;138010;-82
2022/07/15 06:02:28;;;;;;;6.90;1.10;;;;;;;22.23;41.72;99861.46;107747;1270;96158;-81
2022/07/15 06:05:01;;;;;;;2.80;1.10;;;;;;;22.12;41.72;99864.20;107629;1270;137943;-81
2022/07/15 06:07:33;;;;;;;4.40;1.20;;;;;;;22.68;41.71;99871.11;107674;1270;108889;-81
2022/07/15 06:10:09;;;;;;;2.40;1.10;;;;;;;22.97;40.74;99873.77;107678;1271;109086;-81
2022/07/15 06:12:42;;;;;;;4.10;1.60;;;;;;;22.88;40.80;99881.83;106767;1271;137832;-81
2022/07/15 06:15:14;;;;;;;7.30;1.60;;;;;;;23.95;40.17;99878.90;106704;1270;97834;-80
2022/07/15 06:17:49;;;;;;;1.80;1.00;;;;;;;25.43;39.10;99874.31;107150;1270;138018;-82
2022/07/15 06:20:24;;;;;;;6.30;1.20;;;;;;;27.54;37.63;99875.79;106609;1270;107066;-81
2022/07/15 06:22:57;;;;;;;4.20;1.80;;;;;;;29.60;35.67;99866.48;107540;1270;138521;-80
2022/07/15 06:25:30;;;;;;;7.30;1.80;;;;;;;31.46;33.25;99867.48;106659;1271;97861;-80
2022/07/15 06:28:03;;;;;;;4.60;1.20;;;;;;;32.86;31.03;99860.61;107705;1270;96336;-81
2022/07/15 06:30:35;;;;;;;3.50;1.40;;;;;;;33.81;29.99;99860.63;107611;1271;137584;-82
2022/07/15 06:33:10;;;;;;;5.10;1.80;;;;;;;34.32;28.54;99857.95;107745;1270;108912;-83
2022/07/15 06:35:42;;;;;;;2.60;1.30;;;;;;;33.83;27.83;99865.38;107205;1270;137894;-81
2022/07/15 06:38:17;;;;;;;4.00;1.60;;;;;;;33.61;27.75;99870.35;106388;1261;97870;-82
2022/07/15 06:40:50;;;;;;;3.70;1.50;;;;;;;33.18;27.14;99871.33;106150;1270;137848;-81
2022/07/15 06:43:22;;;;;;;4.00;1.40;;;;;;;32.26;27.19;99869.85;106494;1270;111225;-82
2022/07/15 06:46:01;;;;;;;2.20;1.10;;;;;;;30.87;27.91;99871.42;106295;1270;109051;-81
2022/07/15 06:48:33;;;;;;;5.90;1.30;;;;;;;29.91;28.79;99871.70;106587;1270;137873;-82
2022/07/15 06:51:06;;;;;;;6.30;1.50;;;;;;;29.73;29.07;99871.86;106284;1270;97883;-81
2022/07/15 06:53:39;;;;;;;3.10;1.30;;;;;;;29.79;29.55;99876.11;107682;1270;138807;-82
2022/07/15 06:56:12;;;;;;;5.50;1.50;;;;;;;30.55;29.49;99877.87;106186;1270;112210;-81
2022/07/15 06:58:45;;;;;;;4.30;1.30;;;;;;;31.65;29.02;99880.89;107628;1270;138457;-81
2022/07/15 07:01:18;;;;;;;3.40;1.20;;;;;;;32.28;27.24;99884.55;106600;1271;108826;-81
2022/07/15 07:03:52;;;;;;;2.90;1.30;;;;;;;32.01;26.78;99884.02;106559;1270;98313;-80
2022/07/15 07:06:31;;;;;;;5.00;1.10;;;;;;;31.95;26.98;99884.14;106254;1270;137634;-82
2022/07/15 07:09:03;;;;;;;5.10;1.60;;;;;;;32.52;26.70;99881.11;106664;1270;113318;-80
2022/07/15 07:11:36;;;;;;;3.80;1.20;;;;;;;33.29;26.43;99885.06;106176;1271;137910;-80
2022/07/15 07:14:09;;;;;;;2.80;1.10;;;;;;;33.92;25.67;99883.60;106625;1270;108604;-80
2022/07/15 07:16:45;;;;;;;4.50;1.50;;;;;;;34.24;25.14;99886.34;106278;1269;138802;-80
2022/07/15 07:19:17;;;;;;;5.20;1.40;;;;;;;33.63;24.87;99885.58;106420;1270;97812;-82
2022/07/15 07:21:50;;;;;;;2.40;1.30;;;;;;;32.44;25.49;99884.20;106271;1270;112088;-84
2022/07/15 07:24:22;;;;;;;3.80;1.50;;;;;;;31.19;26.35;99887.59;106315;1270;137808;-81
2022/07/15 07:26:55;;;;;;;3.40;1.40;;;;;;;29.94;26.82;99886.74;106348;1270;108988;-81
2022/07/15 07:29:28;;;;;;;3.60;1.50;;;;;;;29.58;28.06;99888.79;106199;1270;138072;-83
2022/07/15 07:32:00;;;;;;;4.80;1.40;;;;;;;30.69;28.08;99889.48;106323;1270;97956;-82
2022/07/15 07:34:33;;;;;;;3.80;1.30;;;;;;;31.05;27.36;99888.46;106261;1270;137679;-82
2022/07/15 07:37:05;;;;;;;5.60;1.80;;;;;;;31.11;27.28;99890.95;107821;1270;109011;-79
2022/07/15 07:39:38;;;;;;;2.90;1.00;;;;;;;31.89;26.80;99891.30;107582;1270;106703;-81
2022/07/15 07:42:10;;;;;;;7.90;2.00;;;;;;;32.10;26.59;99898.82;106234;1270;138336;-80
2022/07/15 07:44:43;;;;;;;4.70;2.90;;;;;;;31.80;26.59;99899.21;106267;1269;97683;-80
2022/07/15 07:47:16;;;;;;;5.80;1.40;;;;;;;32.37;26.69;99900.16;107747;1270;138415;-81
2022/07/15 07:49:49;;;;;;;4.30;1.50;;;;;;;33.44;25.75;99895.16;106247;1270;108864;-81
2022/07/15 07:52:21;;;;;;;3.00;1.40;;;;;;;34.41;24.94;99903.40;107767;1270;109117;-65
2022/07/15 07:54:59;;;;;;;9.60;1.40;;;;;;;35.08;24.39;99903.59;107783;1270;96512;-65
2022/07/15 07:57:32;;;;;;;7.00;1.30;;;;;;;35.69;23.80;99905.38;107829;1270;96198;-68
2022/07/15 08:00:06;;;;;;;4.20;1.00;;;;;;;36.32;23.58;99906.09;107494;1273;137700;-69
2022/07/15 08:02:43;;;;;;;15.00;1.40;;;;;;;36.79;22.65;99900.46;107758;1270;107899;-66
2022/07/15 08:05:16;;;;;;;8.70;1.30;;;;;;;36.90;22.02;99909.00;107679;1270;138032;-66
2022/07/15 08:08:11;;;;;;;4.90;1.20;;;;;;;36.81;21.73;99913.75;107773;1270;96090;-68
2022/07/15 08:10:46;;;;;;;2.30;1.00;;;;;;;36.33;21.87;99916.77;107547;1273;137845;-67
2022/07/15 08:13:21;;;;;;;4.50;1.10;;;;;;;36.04;21.65;99914.90;107468;1270;112109;-67
2022/07/15 08:15:56;;;;;;;2.00;1.10;;;;;;;35.10;22.37;99923.59;107685;1269;108910;-68
2022/07/15 08:18:34;;;;;;;5.00;1.10;;;;;;;34.97;22.97;99923.02;106456;1270;140095;-67
2022/07/15 08:21:07;;;;;;;4.90;1.10;;;;;;;35.00;22.66;99921.91;107778;1270;96300;-72
2022/07/15 08:23:40;;;;;;;1.80;0.80;;;;;;;34.16;22.45;99925.04;106371;1270;137539;-70
2022/07/15 08:26:18;;;;;;;3.10;1.00;;;;;;;33.14;23.41;99926.44;106649;1270;112349;-71
2022/07/15 08:28:51;;;;;;;1.90;1.10;;;;;;;33.27;23.33;99927.69;106767;1270;138359;-70
2022/07/15 08:31:37;;;;;;;2.60;1.10;;;;;;;33.55;22.97;99929.52;106828;1270;109171;-72
2022/07/15 08:34:09;;;;;;;3.00;0.90;;;;;;;33.14;22.98;99932.20;107776;1270;96146;-72
2022/07/15 08:36:41;;;;;;;6.00;1.00;;;;;;;33.39;23.25;99935.73;107661;1270;137418;-70
2022/07/15 08:39:15;;;;;;;3.60;1.00;;;;;;;33.81;22.60;99934.13;107758;1270;112299;-70
2022/07/15 08:41:48;;;;;;;9.40;2.40;;;;;;;34.07;22.53;99936.38;106719;1270;137719;-71
2022/07/15 08:44:21;;;;;;;6.60;1.00;;;;;;;34.35;22.30;99936.95;107795;1270;107911;-71
2022/07/15 08:46:58;;;;;;;2.90;1.10;;;;;;;33.58;21.92;99935.73;107104;1270;139508;-70
2022/07/15 08:49:33;;;;;;;3.70;1.00;;;;;;;32.42;22.10;99952.55;107410;1270;96066;-70
2022/07/15 08:52:07;;;;;;;5.70;1.40;;;;;;;31.30;22.73;99949.48;107796;1270;113143;-70
2022/07/15 08:54:40;;;;;;;1.40;0.60;;;;;;;31.12;23.61;99947.94;107706;1270;137949;-70
2022/07/15 08:57:14;;;;;;;3.30;1.00;;;;;;;31.45;23.66;99940.05;107371;1270;109598;-70
2022/07/15 08:59:46;;;;;;;2.50;1.00;;;;;;;31.80;23.81;99946.41;106474;1270;138196;-70
2022/07/15 09:02:21;;;;;;;1.70;0.90;;;;;;;32.12;23.28;99942.41;106212;1270;97832;-70
2022/07/15 09:05:30;;;;;;;2.90;0.90;;;;;;;32.10;22.95;99942.98;107711;1270;138639;-70
2022/07/15 09:08:05;;;;;;;2.90;1.10;;;;;;;31.14;23.05;99939.40;107737;1269;109011;-71
2022/07/15 09:10:50;;;;;;;3.20;0.70;;;;;;;30.68;23.53;99947.25;107633;1270;138069;-69
2022/07/15 09:13:29;;;;;;;5.70;1.10;;;;;;;30.01;24.13;99949.58;107806;1270;96238;-71
2022/07/15 09:16:04;;;;;;;4.80;0.90;;;;;;;29.16;24.58;99948.63;107713;1270;96107;-69
2022/07/15 09:18:39;;;;;;;5.30;0.80;;;;;;;28.26;25.34;99963.70;106234;1270;138709;-72
2022/07/15 09:21:20;;;;;;;5.20;0.90;;;;;;;27.34;25.78;99962.26;107816;1270;108025;-71
2022/07/15 09:23:53;;;;;;;6.00;1.10;;;;;;;26.68;26.91;99965.34;106410;1270;138224;-71
2022/07/15 09:26:36;;;;;;;2.50;0.70;;;;;;;27.10;27.42;99964.30;107494;1269;449121;-71
2022/07/15 09:33:34;;;;;;;6.10;0.90;;;;;;;27.63;27.49;99961.11;107661;1270;138076;-71
2022/07/15 09:36:01;;;;;;;5.60;1.00;;;;;;;27.01;27.17;99960.45;106862;1270;138455;-70
2022/07/15 09:38:00;;;;;;;2.80;1.10;;;;;;;26.51;27.98;99970.61;107792;1269;109285;-71
2022/07/15 09:40:34;;;;;;;3.20;1.40;;;;;;;26.15;27.97;99973.98;106617;1270;138771;-69
2022/07/15 09:43:07;;;;;;;4.20;1.20;;;;;;;25.68;28.36;99977.83;107785;1270;96300;-71
2022/07/15 09:45:40;;;;;;;4.50;1.30;;;;;;;25.57;28.68;99974.81;106714;1270;112574;-71
2022/07/15 09:48:13;;;;;;;3.90;1.20;;;;;;;25.44;28.75;99973.77;107713;1269;138035;-71
2022/07/15 09:50:45;;;;;;;3.90;1.30;;;;;;;25.16;29.02;99976.37;107782;1270;108384;-71
2022/07/15 09:53:18;;;;;;;2.20;1.20;;;;;;;24.82;29.18;99968.55;106873;1270;138177;-71
2022/07/15 09:55:51;;;;;;;3.90;1.10;;;;;;;24.72;29.69;99977.76;107812;1270;96204;-71
2022/07/15 09:58:24;;;;;;;2.90;1.10;;;;;;;25.26;30.09;99976.05;107222;1269;112445;-71
2022/07/15 10:00:58;;;;;;;5.20;1.20;;;;;;;25.50;29.64;99973.17;106070;1270;137796;-71
2022/07/15 10:03:32;;;;;;;2.70;0.90;;;;;;;25.34;29.62;99969.27;107732;1270;108059;-71
2022/07/15 10:06:06;;;;;;;3.00;1.00;;;;;;;25.73;29.72;99973.18;107636;1270;137771;-71
2022/07/15 10:08:39;;;;;;;2.40;0.70;;;;;;;26.39;29.51;99971.55;107780;1270;95760;-72
2022/07/15 10:11:12;;;;;;;5.30;0.90;;;;;;;26.89;28.51;99968.76;107012;1270;138825;-71
2022/07/15 10:14:02;;;;;;;4.60;0.80;;;;;;;26.65;27.38;99969.23;107789;1270;108232;-71
2022/07/15 10:17:02;;;;;;;3.90;0.80;;;;;;;26.17;27.34;99976.94;106137;1269;139024;-72
2022/07/15 10:19:52;;;;;;;4.90;1.00;;;;;;;25.99;27.86;99980.96;107816;1269;95925;-72
2022/07/15 10:22:36;;;;;;;5.40;1.00;;;;;;;26.19;27.80;99984.06;107794;1270;96247;-72
2022/07/15 10:25:24;;;;;;;7.40;1.20;;;;;;;26.32;27.86;99981.15;107745;1271;112495;-72
2022/07/15 10:28:05;;;;;;;4.00;0.80;;;;;;;26.69;27.76;99983.90;107762;1270;109208;-71
2022/07/15 10:30:39;;;;;;;1.60;0.70;;;;;;;26.64;27.74;99975.40;107642;1270;138373;-71
2022/07/15 10:33:15;;;;;;;5.20;1.00;;;;;;;26.47;27.42;99981.23;107776;1270;95991;-71
2022/07/15 10:35:49;;;;;;;7.90;2.00;;;;;;;26.30;27.81;99982.38;106935;1270;138014;-71
2022/07/15 10:38:25;;;;;;;3.90;1.30;;;;;;;26.13;27.77;99985.45;107203;1270;111259;-70
2022/07/15 10:41:06;;;;;;;2.90;0.80;;;;;;;26.08;27.76;99991.07;106562;1270;138273;-70
2022/07/15 10:43:48;;;;;;;4.60;0.80;;;;;;;26.20;27.76;99985.73;107713;1270;108877;-70
2022/07/15 10:46:26;;;;;;;3.80;0.80;;;;;;;25.88;27.94;99989.29;106186;1269;97831;-71
2022/07/15 10:49:32;;;;;;;6.40;0.90;;;;;;;26.02;28.95;99996.13;107800;1269;96194;-72
2022/07/15 10:52:16;;;;;;;6.40;1.20;;;;;;;26.15;28.34;99988.00;107002;1271;111936;-71
2022/07/15 10:54:51;;;;;;;6.90;0.90;;;;;;;26.05;27.95;99991.94;107690;1270;138067;-70
2022/07/15 10:57:55;;;;;;;3.80;1.00;;;;;;;25.83;28.07;99993.59;107844;1270;108692;-70
2022/07/15 11:00:32;;;;;;;3.70;1.00;;;;;;;25.55;28.26;99988.14;107690;1270;138521;-78
2022/07/15 11:03:06;;;;;;;4.20;1.10;;;;;;;25.44;28.73;99991.60;107804;1270;96870;-74
2022/07/15 11:06:00;;;;;;;3.20;0.70;;;;;;;25.55;29.09;99992.92;107682;1270;137588;-78
2022/07/15 11:08:58;;;;;;;6.50;1.00;;;;;;;25.47;28.67;99997.11;106250;1270;107865;-78
2022/07/15 11:11:50;;;;;;;5.40;0.90;;;;;;;25.22;28.82;99998.48;106602;1270;137746;-79
2022/07/15 11:14:49;;;;;;;10.50;1.10;;;;;;;24.93;28.92;100007.38;106194;1270;97829;-79
2022/07/15 11:17:24;;;;;;;4.10;1.20;;;;;;;24.79;29.09;100001.57;107761;1270;138002;-80
2022/07/15 11:19:59;;;;;;;2.40;0.80;;;;;;;24.65;29.36;100012.02;107775;1270;112507;-80
2022/07/15 11:22:32;;;;;;;7.80;1.20;;;;;;;24.68;29.44;100003.88;107822;1270;107915;-77
2022/07/15 11:25:06;;;;;;;2.80;0.90;;;;;;;24.62;29.02;100010.36;107758;1270;108876;-78
2022/07/15 11:27:39;;;;;;;2.70;0.90;;;;;;;24.52;29.43;100010.98;107116;1270;97914;-76
2022/07/15 11:30:14;;;;;;;4.50;0.80;;;;;;;24.45;29.65;100016.37;106268;1270;138054;-80
2022/07/15 11:32:55;;;;;;;7.70;1.20;;;;;;;24.24;29.62;100010.67;107714;1270;112941;-80
2022/07/15 11:35:29;;;;;;;7.90;1.30;;;;;;;24.14;29.94;100006.46;107685;1270;137994;-81
2022/07/15 11:38:05;;;;;;;7.40;1.20;;;;;;;24.13;30.21;100018.84;106565;1270;108573;-80
2022/07/15 11:46:28;;;;;;;3.60;0.70;;;;;;;24.13;29.00;100018.30;106703;1276;112275;-79
2022/07/15 11:49:01;;;;;;;8.70;1.20;;;;;;;24.03;28.86;100021.54;107405;1276;107881;-79
2022/07/15 11:51:34;;;;;;;3.00;0.90;;;;;;;23.88;29.38;100020.02;107348;1276;110372;-79
2022/07/15 11:54:06;;;;;;;6.10;1.10;;;;;;;23.76;29.58;100020.27;107152;1276;138157;-80
2022/07/15 11:56:39;;;;;;;6.50;1.00;;;;;;;23.82;29.79;100022.92;107394;1276;95932;-79
2022/07/15 11:59:11;;;;;;;4.80;1.00;;;;;;;23.89;29.46;100017.86;107278;1276;138051;-80
2022/07/15 12:01:44;;;;;;;7.50;0.80;;;;;;;23.80;29.02;100027.16;107298;1276;108937;-75
2022/07/15 12:04:16;;;;;;;5.60;1.20;;;;;;;23.66;29.41;100024.76;107347;1276;108876;-77
2022/07/15 12:06:53;;;;;;;4.00;1.00;;;;;;;23.56;29.38;100030.39;106901;1276;138352;-76
2022/07/15 12:09:24;;;;;;;;;;;;;;;23.27;29.23;100036.13;105960;1276;97725;-80
2022/07/15 12:12:02;;;;;;;4.00;0.90;;;;;;;22.92;29.38;100048.29;107008;1275;124321;-77
2022/07/15 12:14:35;;;;;;;9.00;1.00;;;;;;;22.80;29.58;100048.95;105645;1276;109122;-79
2022/07/15 12:17:08;;;;;;;5.10;0.80;;;;;;;22.86;29.55;100049.47;105611;1276;138028;-76
2022/07/15 12:19:40;;;;;;;7.70;0.70;;;;;;;22.92;29.56;100042.60;105695;1276;97864;-76
2022/07/15 12:22:14;;;;;;;2.30;0.70;;;;;;;22.93;29.49;100040.42;107205;1276;96614;-75
2022/07/15 12:24:51;;;;;;;6.50;1.00;;;;;;;22.85;29.57;100040.88;106783;1270;138489;-76
2022/07/15 12:27:34;;;;;;;9.60;0.90;;;;;;;22.81;29.81;100042.27;106478;1270;108952;-77
2022/07/15 12:30:11;;;;;;;3.60;0.70;;;;;;;22.69;29.78;100042.08;107406;1270;138026;-77
2022/07/15 12:32:43;;;;;;;4.60;0.90;;;;;;;22.47;29.92;100045.58;107768;1270;96158;-72
2022/07/15 12:35:17;;;;;;;4.70;0.90;;;;;;;22.27;30.26;100048.52;106815;1270;138206;-76
2022/07/15 12:37:53;;;;;;;4.10;1.10;;;;;;;22.26;30.34;100046.28;106746;1270;111354;-76
2022/07/15 12:40:26;;;;;;;4.70;1.10;;;;;;;22.30;30.39;100049.47;106191;1270;109277;-75
2022/07/15 12:43:00;;;;;;;8.80;1.10;;;;;;;22.38;30.34;100045.84;106134;1270;137660;-76